Terminal Aerodrome Forecast
Issued by NWS Tuscon, AZ

Home | Current Version | Previous Version | Text Only | Print | Product List | Glossary On
Versions: 1 2 3 4 5 6 7 8 9 10 11 12 13 14
000
FTUS45 KTWC 022339
TAFDUG
TAF
KDUG 022339Z 0300/0324 31011KT P6SM VCTS SCT070CB BKN130
      TEMPO 0300/0302 VRB15G30KT -TSRA BKN060CB OVC100
     FM030200 35007KT P6SM SCT070 SCT130 BKN250
     FM030700 VRB04KT P6SM FEW140 SCT250
     FM031700 20007KT P6SM SCT070 SCT120
     FM032100 22010KT P6SM VCTS SCT070CB BKN120=

USA.gov is the U.S. government's official web portal to all federal, state and local government web resources and services.